Time;durP1;ratioP1;P1;durP2;ratioP2;P2;SDS_P1;SDS_P2;PMS_P1;PMS_P2;Temp;Humidity;BMP_temperature;BMP_pressure;BME280_temperature;BME280_humidity;BME280_pressure;Samples;Min_cycle;Max_cycle;Signal;HPM_P1;HPM_P2
2022/01/13 00:02:29;;;;;;;30.75;10.85;;;;;;;3.06;55.38;99888.22;4487137;32;20012;-77
2022/01/13 00:04:56;;;;;;;29.63;10.82;;;;;;;2.78;55.77;99889.44;4473674;32;20076;-77
2022/01/13 00:07:23;;;;;;;;;;;;;;;3.23;54.59;99896.16;4487020;32;20143;-77
2022/01/13 00:09:50;;;;;;;33.20;10.75;;;;;;;3.31;54.43;99901.37;4487145;32;19976;-76
2022/01/13 00:12:20;;;;;;;;;;;;;;;3.28;54.03;99902.19;4487399;32;20151;-77
2022/01/13 00:15:20;;;;;;;30.67;11.20;;;;;;;2.96;55.77;99895.69;4486985;32;19981;-77
2022/01/13 00:17:56;;;;;;;29.80;10.83;;;;;;;2.94;56.19;99892.25;4486975;32;20147;-77
2022/01/13 00:20:58;;;;;;;31.85;11.27;;;;;;;3.58;54.16;99896.69;4486366;32;20110;-77
2022/01/13 00:25:56;;;;;;;26.95;10.75;;;;;;;3.35;55.41;99896.34;4486974;32;20081;-77
2022/01/13 00:28:25;;;;;;;29.80;11.65;;;;;;;2.89;56.45;99893.03;4486593;32;20510;-77
2022/01/13 00:30:55;;;;;;;31.27;10.95;;;;;;;3.96;52.84;99893.81;4487110;32;20159;-77
2022/01/13 00:33:24;;;;;;;27.87;11.45;;;;;;;3.98;52.54;99885.34;4486995;32;20179;-77
2022/01/13 00:35:53;;;;;;;30.55;10.50;;;;;;;3.46;55.14;99891.41;4486982;32;20416;-77
2022/01/13 00:38:21;;;;;;;29.42;10.85;;;;;;;3.20;55.86;99885.91;4486744;32;20131;-77
2022/01/13 00:40:47;;;;;;;29.42;11.05;;;;;;;4.00;53.50;99882.81;4486668;32;20423;-77
2022/01/13 00:43:14;;;;;;;;;;;;;;;4.38;52.33;99880.72;4487089;32;20141;-77
2022/01/13 00:45:41;;;;;;;31.52;10.65;;;;;;;3.45;55.11;99884.59;4486837;32;19968;-77
2022/01/13 00:48:09;;;;;;;31.70;11.02;;;;;;;4.14;52.76;99885.53;4486441;32;20108;-78
2022/01/13 00:50:36;;;;;;;29.37;10.60;;;;;;;4.62;51.89;99877.56;4486881;32;20120;-77
2022/01/13 00:53:03;;;;;;;32.40;11.12;;;;;;;5.07;49.95;99878.84;4486504;32;20147;-77
2022/01/13 00:55:57;;;;;;;32.08;11.57;;;;;;;3.99;52.55;99881.94;4472168;32;20085;-77
2022/01/13 00:58:27;;;;;;;29.52;11.05;;;;;;;3.77;53.78;99880.81;4486515;32;20119;-77
2022/01/13 01:00:54;;;;;;;29.63;10.15;;;;;;;4.67;51.12;99887.81;4486523;32;20148;-77
2022/01/13 01:03:22;;;;;;;28.83;10.40;;;;;;;4.46;51.52;99899.53;4486050;32;20106;-77
2022/01/13 01:05:49;;;;;;;30.62;10.52;;;;;;;4.83;50.94;99898.25;4486379;32;20367;-77
2022/01/13 01:08:18;;;;;;;28.15;10.27;;;;;;;4.15;52.35;99897.44;4486672;32;20135;-77
2022/01/13 01:10:47;;;;;;;31.12;9.90;;;;;;;4.01;52.98;99890.47;4488081;32;20115;-77
2022/01/13 01:13:19;;;;;;;31.27;10.52;;;;;;;3.80;53.76;99894.44;4488455;32;20152;-76
2022/01/13 01:15:51;;;;;;;28.67;10.52;;;;;;;3.23;55.92;99897.84;4487995;32;20132;-77
2022/01/13 01:21:02;;;;;;;33.45;10.30;;;;;;;3.77;54.24;99908.87;4488525;32;20091;-77
2022/01/13 01:23:30;;;;;;;28.25;10.10;;;;;;;4.05;53.78;99907.59;4488066;32;20449;-77
2022/01/13 01:26:04;;;;;;;29.15;10.73;;;;;;;3.58;55.21;99909.44;4488271;32;20076;-77
2022/01/13 01:28:42;;;;;;;29.67;9.77;;;;;;;3.86;54.40;99907.31;4488386;32;20104;-77
2022/01/13 01:31:11;;;;;;;31.00;11.40;;;;;;;4.09;53.44;99908.47;4488096;32;20454;-77
2022/01/13 01:33:40;;;;;;;28.50;10.55;;;;;;;4.12;53.14;99903.38;4488105;32;20096;-77
2022/01/13 01:36:12;;;;;;;29.35;10.63;;;;;;;3.60;55.30;99912.88;4488472;32;20430;-76
2022/01/13 01:38:41;;;;;;;28.35;9.82;;;;;;;2.99;56.90;99903.41;4487840;32;20132;-77
2022/01/13 01:41:08;;;;;;;29.08;10.35;;;;;;;4.09;53.72;99908.47;4488328;32;20100;-77
2022/01/13 01:43:35;;;;;;;30.62;11.18;;;;;;;4.23;53.61;99906.94;4487785;32;20821;-77
2022/01/13 01:46:02;;;;;;;;;;;;;;;3.21;55.86;99913.12;4488454;32;20097;-77
2022/01/13 01:48:34;;;;;;;27.77;9.23;;;;;;;4.16;53.93;99917.94;4488109;32;19976;-77
2022/01/13 01:51:04;;;;;;;25.17;9.55;;;;;;;4.43;53.23;99921.66;4487849;32;20483;-77
2022/01/13 01:53:31;;;;;;;29.30;10.63;;;;;;;4.11;53.92;99914.44;4474242;32;20092;-77
2022/01/13 01:55:58;;;;;;;26.65;9.35;;;;;;;4.26;53.85;99918.91;4488101;32;20140;-77
2022/01/13 01:58:27;;;;;;;26.10;10.02;;;;;;;4.53;52.84;99908.13;4487606;32;20118;-77
2022/01/13 02:00:55;;;;;;;25.23;9.93;;;;;;;4.31;54.75;99917.25;4488003;32;20774;-77
2022/01/13 02:03:24;;;;;;;28.23;10.10;;;;;;;4.14;54.63;99908.50;4488116;32;20158;-77
2022/01/13 02:05:52;;;;;;;31.58;10.27;;;;;;;3.65;57.32;99906.16;4487764;32;20522;-77
2022/01/13 02:08:19;;;;;;;26.80;10.55;;;;;;;4.57;54.13;99905.66;4488014;32;20131;-77
2022/01/13 02:10:46;;;;;;;27.13;9.88;;;;;;;5.03;53.18;99902.69;4488147;32;20493;-77
2022/01/13 02:13:19;;;;;;;30.25;10.73;;;;;;;4.44;54.66;99898.66;4473773;32;20736;-77
2022/01/13 02:15:59;;;;;;;24.17;9.20;;;;;;;4.24;56.41;99907.78;4474533;32;20106;-77
2022/01/13 02:18:29;;;;;;;27.58;10.70;;;;;;;5.23;53.41;99903.72;4487963;32;20155;-77
2022/01/13 02:20:56;;;;;;;29.67;10.35;;;;;;;5.25;53.06;99908.84;4487486;32;20093;-77
2022/01/13 02:23:34;;;;;;;27.92;10.05;;;;;;;4.82;54.06;99906.75;4487990;32;20151;-77
2022/01/13 02:26:03;;;;;;;28.00;9.32;;;;;;;5.39;52.66;99902.13;4487926;32;20498;-77
2022/01/13 02:28:30;;;;;;;27.00;9.82;;;;;;;5.59;52.10;99904.84;4489468;32;20113;-77
2022/01/13 02:30:58;;;;;;;27.77;10.30;;;;;;;5.75;52.13;99911.78;4489625;32;20147;-76
2022/01/13 02:33:25;;;;;;;31.95;11.15;;;;;;;5.63;51.80;99899.72;4487905;32;20102;-76
2022/01/13 02:35:52;;;;;;;34.63;10.95;;;;;;;5.12;52.93;99901.06;4488310;32;20131;-77
2022/01/13 02:38:19;;;;;;;26.40;9.60;;;;;;;4.56;55.12;99898.78;4487665;32;20562;-77
2022/01/13 02:40:54;;;;;;;30.52;11.07;;;;;;;4.24;55.47;99884.78;4487532;32;20092;-77
2022/01/13 02:43:22;;;;;;;25.85;9.93;;;;;;;4.61;54.77;99879.25;4487865;32;20160;-76
2022/01/13 02:46:18;;;;;;;28.75;9.90;;;;;;;4.84;54.72;99884.59;4487808;32;20088;-77
2022/01/13 02:48:46;;;;;;;32.45;10.68;;;;;;;4.96;53.48;99881.28;4487407;32;20348;-77
2022/01/13 02:51:13;;;;;;;29.08;10.60;;;;;;;5.80;51.26;99869.97;4487850;32;20160;-77
2022/01/13 02:53:40;;;;;;;25.73;9.70;;;;;;;5.24;52.24;99872.16;4487805;32;20200;-77
2022/01/13 02:56:06;;;;;;;;;;;;;;;5.76;51.53;99869.97;4473625;32;20469;-77
2022/01/13 02:58:34;;;;;;;31.45;9.85;;;;;;;5.48;52.44;99874.91;4487804;32;19972;-77
2022/01/13 03:01:04;;;;;;;25.70;9.65;;;;;;;5.95;51.18;99882.03;4487789;32;20111;-77
2022/01/13 03:03:34;;;;;;;24.92;10.10;;;;;;;5.56;52.32;99882.62;4487720;32;20137;-77
2022/01/13 03:06:13;;;;;;;26.37;9.48;;;;;;;5.44;52.41;99885.13;4487705;32;20080;-77
2022/01/13 03:08:46;;;;;;;27.33;9.77;;;;;;;5.64;51.51;99886.13;4487228;32;20136;-77
2022/01/13 03:11:15;;;;;;;24.50;9.82;;;;;;;5.99;50.96;99898.28;4473769;32;20738;-77
2022/01/13 03:13:42;;;;;;;26.33;9.73;;;;;;;6.03;50.39;99892.31;4487576;32;20183;-77
2022/01/13 03:16:11;;;;;;;25.67;10.25;;;;;;;6.06;50.51;99895.78;4487240;32;20080;-77
2022/01/13 03:18:38;;;;;;;31.60;10.63;;;;;;;5.45;51.57;99897.06;4487573;32;20130;-77
2022/01/13 03:21:07;;;;;;;24.85;9.73;;;;;;;5.78;51.15;99892.16;4487638;32;20114;-77
2022/01/13 03:23:36;;;;;;;24.75;9.80;;;;;;;5.31;52.21;99899.50;4473019;32;20163;-77
2022/01/13 03:26:03;;;;;;;24.00;9.52;;;;;;;6.01;50.31;99897.44;4487240;32;20089;-77
2022/01/13 03:28:50;;;;;;;27.48;9.95;;;;;;;5.38;51.24;99901.28;4487334;32;20116;-77
2022/01/13 03:31:22;;;;;;;27.35;9.75;;;;;;;5.25;52.37;99912.25;4486691;32;20088;-77
2022/01/13 03:33:51;;;;;;;26.90;10.20;;;;;;;4.80;53.38;99908.44;4487458;32;20454;-77
2022/01/13 03:36:18;;;;;;;25.98;10.27;;;;;;;5.09;52.74;99908.69;4486972;32;20100;-77
2022/01/13 03:38:45;;;;;;;29.48;10.85;;;;;;;4.82;52.60;99906.75;4487184;32;20132;-77
2022/01/13 03:41:13;;;;;;;27.00;9.85;;;;;;;5.54;51.05;99909.09;4487615;32;20151;-77
2022/01/13 03:43:40;;;;;;;28.50;10.55;;;;;;;5.43;51.39;99907.31;4487091;32;20092;-77
2022/01/13 03:46:08;;;;;;;26.77;9.75;;;;;;;4.98;52.63;99914.56;4487381;32;20149;-77
2022/01/13 03:48:38;;;;;;;24.20;9.13;;;;;;;5.27;52.24;99920.81;4487324;32;20171;-77
2022/01/13 03:51:05;;;;;;;26.45;10.02;;;;;;;5.14;52.72;99919.84;4487121;32;20087;-77
2022/01/13 03:53:32;;;;;;;26.30;10.20;;;;;;;5.30;51.87;99915.69;4487348;32;20109;-77
2022/01/13 03:56:08;;;;;;;;;;;;;;;5.32;51.63;99921.72;4487616;32;20084;-77
2022/01/13 03:59:07;;;;;;;25.62;9.38;;;;;;;5.07;52.21;99924.87;4487131;32;19983;-77
2022/01/13 04:01:49;;;;;;;29.90;10.43;;;;;;;5.21;51.26;99919.06;4487409;32;20594;-77
2022/01/13 04:04:16;;;;;;;27.33;10.38;;;;;;;5.74;50.82;99917.72;4487147;32;20084;-77
2022/01/13 04:06:45;;;;;;;27.37;9.52;;;;;;;5.52;51.25;99917.59;4487570;32;20139;-77
2022/01/13 04:09:34;;;;;;;23.70;9.82;;;;;;;5.09;52.50;99907.84;4487228;32;20712;-77
2022/01/13 04:12:04;;;;;;;25.52;8.63;;;;;;;4.65;53.13;99918.50;4487094;32;20100;-77
2022/01/13 04:14:56;;;;;;;30.23;10.73;;;;;;;5.77;49.98;99923.75;4487462;32;20080;-77
2022/01/13 04:17:24;;;;;;;25.58;9.07;;;;;;;5.38;51.28;99929.44;4487444;32;20575;-77
2022/01/13 04:19:51;;;;;;;26.33;9.65;;;;;;;6.51;47.96;99919.03;4486705;32;20156;-77
2022/01/13 04:22:19;;;;;;;24.33;9.35;;;;;;;5.83;48.61;99907.53;4487070;32;20104;-77
2022/01/13 04:24:51;;;;;;;27.48;11.32;;;;;;;5.64;50.05;99909.16;4486718;32;20114;-77
2022/01/13 04:27:24;;;;;;;28.87;10.60;;;;;;;5.97;49.57;99895.72;4472507;32;20496;-77
2022/01/13 04:31:00;;;;;;;30.98;11.07;;;;;;;5.97;49.94;99903.41;4486861;32;20165;-77
2022/01/13 04:32:48;;;;;;;25.17;9.60;;;;;;;5.73;50.59;99927.13;4476027;32;20439;-77
2022/01/13 04:35:15;;;;;;;26.77;9.90;;;;;;;6.11;49.33;99931.66;4486685;32;20096;-77
2022/01/13 04:37:42;;;;;;;26.20;9.40;;;;;;;5.42;50.86;99920.94;4486891;32;20088;-76
2022/01/13 04:40:09;;;;;;;22.62;9.50;;;;;;;5.39;51.50;99905.53;4486207;32;20089;-77
2022/01/13 04:42:41;;;;;;;24.33;9.55;;;;;;;5.19;52.08;99882.34;4487667;32;20573;-77
2022/01/13 04:45:08;;;;;;;27.92;10.15;;;;;;;5.88;50.28;99880.25;4474807;32;20101;-76
2022/01/13 04:47:35;;;;;;;26.08;9.68;;;;;;;5.95;49.72;99886.28;4488357;32;20092;-77
2022/01/13 04:50:03;;;;;;;25.10;10.02;;;;;;;5.63;50.78;99891.19;4474386;32;20168;-77
2022/01/13 04:52:30;;;;;;;27.33;10.45;;;;;;;5.48;50.27;99889.41;4488568;32;20510;-77
2022/01/13 04:54:57;;;;;;;25.95;10.05;;;;;;;5.69;49.43;99889.53;4488176;32;20114;-77
2022/01/13 04:57:24;;;;;;;24.90;10.15;;;;;;;6.50;47.25;99892.53;4488569;32;20148;-77
2022/01/13 04:59:51;;;;;;;24.23;9.57;;;;;;;6.05;48.40;99899.16;4488377;32;20100;-77
2022/01/13 05:02:18;;;;;;;27.55;10.48;;;;;;;5.31;50.42;99908.87;4488149;32;20084;-77
2022/01/13 05:04:45;;;;;;;36.25;12.48;;;;;;;5.77;49.36;99902.41;4488319;32;20088;-77
2022/01/13 05:07:12;;;;;;;26.45;10.30;;;;;;;5.70;49.18;99898.94;4488209;32;20104;-76
2022/01/13 05:09:39;;;;;;;23.35;9.43;;;;;;;5.84;48.77;99896.44;4488322;32;20152;-77
2022/01/13 05:12:07;;;;;;;29.58;11.90;;;;;;;6.25;47.42;99894.13;4488549;32;20143;-77
2022/01/13 05:14:33;;;;;;;28.52;11.88;;;;;;;5.93;46.90;99895.69;4487982;32;20163;-76
2022/01/13 05:17:32;;;;;;;28.62;11.95;;;;;;;4.55;50.74;99901.34;4488429;32;20418;-76
2022/01/13 05:20:12;;;;;;;27.50;11.12;;;;;;;4.97;49.89;99907.75;4483257;32;159451;-77
2022/01/13 05:22:39;;;;;;;26.92;9.98;;;;;;;4.74;51.44;99905.81;4475982;32;20167;-77
2022/01/13 05:25:07;;;;;;;26.83;10.15;;;;;;;5.03;51.08;99905.25;4488289;32;20503;-77
2022/01/13 05:27:34;;;;;;;21.33;8.57;;;;;;;4.29;53.09;99899.34;4488579;32;20060;-77
2022/01/13 05:30:03;;;;;;;21.45;7.95;;;;;;;4.53;53.67;99903.88;4487988;32;20105;-77
2022/01/13 05:32:30;;;;;;;24.25;8.65;;;;;;;5.29;51.33;99924.22;4488309;32;20107;-77
2022/01/13 05:34:57;;;;;;;24.02;9.25;;;;;;;4.83;53.71;99925.50;4474187;32;20148;-77
2022/01/13 05:37:24;;;;;;;22.05;8.90;;;;;;;5.28;51.78;99919.09;4488144;32;20534;-77
2022/01/13 05:39:51;;;;;;;;;;;;;;;5.52;51.10;99924.41;4488459;32;20144;-77
2022/01/13 05:42:18;;;;;;;20.95;8.73;;;;;;;5.70;50.74;99923.69;4488141;32;19979;-77
2022/01/13 05:44:46;;;;;;;23.45;9.50;;;;;;;5.61;50.90;99921.06;4488361;32;20615;-77
2022/01/13 05:47:13;;;;;;;25.73;9.25;;;;;;;1.99;62.28;99926.94;4488370;32;20089;-77
2022/01/13 05:49:41;;;;;;;18.80;7.00;;;;;;;3.17;60.75;99927.50;4487734;32;20136;-77
2022/01/13 05:52:11;;;;;;;26.00;9.00;;;;;;;3.17;60.54;99924.97;4474552;32;20104;-77
2022/01/13 05:54:38;;;;;;;20.40;7.10;;;;;;;2.95;61.17;99920.31;4488684;32;20156;-76
2022/01/13 05:57:05;;;;;;;22.05;8.73;;;;;;;2.62;62.43;99930.75;4490074;32;20092;-77
2022/01/13 05:59:32;;;;;;;23.95;7.90;;;;;;;2.42;63.60;99940.56;4489871;32;20473;-76
2022/01/13 06:01:59;;;;;;;23.65;9.23;;;;;;;2.31;63.06;99934.41;4488524;32;20464;-76
2022/01/13 06:04:26;;;;;;;23.48;8.60;;;;;;;3.39;59.75;99940.63;4474045;32;20092;-77
2022/01/13 06:06:53;;;;;;;;;;;;;;;4.33;56.37;99939.44;4488399;32;20450;-77
2022/01/13 06:09:20;;;;;;;21.55;8.45;;;;;;;5.17;53.09;99945.47;4487816;32;19984;-77
2022/01/13 06:14:40;;;;;;;21.70;8.95;;;;;;;5.05;52.21;99937.66;4485004;32;20155;-77
2022/01/13 06:17:07;;;;;;;23.08;8.70;;;;;;;5.37;51.03;99937.09;4488113;32;20097;-77
2022/01/13 06:19:34;;;;;;;25.17;9.13;;;;;;;4.73;52.99;99939.91;4487528;32;20088;-77
2022/01/13 06:22:00;;;;;;;21.90;8.43;;;;;;;5.33;51.21;99936.22;4488215;32;20104;-77
2022/01/13 06:24:27;;;;;;;;;;;;;;;5.89;49.69;99938.34;4488035;32;20364;-77
2022/01/13 06:26:54;;;;;;;26.77;9.07;;;;;;;6.04;48.86;99947.84;4488187;32;20354;-77
2022/01/13 06:29:21;;;;;;;23.48;9.68;;;;;;;5.97;49.18;99944.41;4487975;32;20168;-77
2022/01/13 06:31:48;;;;;;;24.80;9.48;;;;;;;4.88;51.33;99939.19;4487910;32;20144;-77
2022/01/13 06:34:15;;;;;;;26.15;9.35;;;;;;;5.10;52.14;99933.44;4488136;32;20143;-77
2022/01/13 06:36:42;;;;;;;23.80;9.27;;;;;;;4.09;54.86;99941.69;4488090;32;20140;-77
2022/01/13 06:39:09;;;;;;;22.58;9.27;;;;;;;4.70;52.71;99933.91;4487598;32;20160;-77
2022/01/13 06:41:39;;;;;;;23.50;9.00;;;;;;;5.50;50.83;99939.75;4488171;32;20104;-77
2022/01/13 06:44:06;;;;;;;25.25;9.15;;;;;;;4.10;56.27;99940.84;4488063;32;20407;-77
2022/01/13 06:46:33;;;;;;;20.75;8.60;;;;;;;4.70;54.63;99934.75;4487739;32;20080;-77
2022/01/13 06:49:00;;;;;;;25.20;8.77;;;;;;;4.85;54.00;99936.62;4488096;32;20115;-77
2022/01/13 06:51:32;;;;;;;22.70;8.80;;;;;;;4.61;55.43;99940.63;4488036;32;20465;-78
2022/01/13 06:53:59;;;;;;;27.40;10.73;;;;;;;5.98;51.21;99947.81;4460394;32;20135;-76
2022/01/13 06:56:26;;;;;;;24.67;10.18;;;;;;;5.95;50.80;99956.31;4487708;32;20454;-77
2022/01/13 06:58:54;;;;;;;25.80;10.60;;;;;;;5.73;51.57;99967.25;4487818;32;20112;-77
2022/01/13 07:01:23;;;;;;;25.12;9.52;;;;;;;6.44;48.86;99958.31;4487885;32;20108;-77
2022/01/13 07:03:50;;;;;;;29.50;12.02;;;;;;;5.64;51.08;99957.81;4462632;32;20141;-78
2022/01/13 07:06:17;;;;;;;38.97;13.85;;;;;;;5.74;51.16;99951.03;4487913;32;20084;-77
2022/01/13 07:08:44;;;;;;;35.80;12.82;;;;;;;6.06;49.92;99958.94;4488796;32;20148;-77
2022/01/13 07:11:11;;;;;;;;;;;;;;;4.71;53.00;99961.19;4490229;32;20470;-77
2022/01/13 07:13:38;;;;;;;22.20;8.60;;;;;;;5.14;53.86;99971.03;4490667;32;19964;-77
2022/01/13 07:16:05;;;;;;;16.05;5.80;;;;;;;3.78;59.00;99971.03;4491019;32;20140;-77
2022/01/13 07:18:38;;;;;;;24.60;9.40;;;;;;;3.83;59.49;99965.97;4489520;32;20152;-76
2022/01/13 07:21:12;;;;;;;21.25;8.15;;;;;;;3.83;60.19;99964.31;4488924;32;20056;-76
2022/01/13 07:23:39;;;;;;;24.58;8.48;;;;;;;3.54;60.89;99957.88;4490615;32;20875;-77
2022/01/13 07:26:06;;;;;;;;;;;;;;;3.65;60.44;99956.37;4493114;32;20108;-77
2022/01/13 07:28:33;;;;;;;21.58;9.13;;;;;;;4.15;59.24;99956.22;4492476;32;20020;-76
2022/01/13 07:31:00;;;;;;;24.45;7.87;;;;;;;4.64;57.43;99950.03;4492031;32;20604;-77
2022/01/13 07:33:28;;;;;;;23.12;8.00;;;;;;;4.06;59.51;99952.72;4488076;32;20166;-76
2022/01/13 07:35:55;;;;;;;23.60;8.95;;;;;;;5.03;56.96;99948.75;4490822;32;20176;-77
2022/01/13 07:38:25;;;;;;;23.77;8.23;;;;;;;6.13;53.74;99950.47;4488854;32;20115;-76
2022/01/13 07:40:53;;;;;;;20.55;8.52;;;;;;;6.66;51.83;99958.38;4490953;32;20092;-78
2022/01/13 07:43:25;;;;;;;23.52;7.95;;;;;;;4.79;57.98;99952.78;4491652;32;20171;-75
2022/01/13 07:45:58;;;;;;;23.83;9.60;;;;;;;5.14;56.33;99962.50;4486923;32;20096;-77
2022/01/13 07:48:25;;;;;;;20.05;7.87;;;;;;;7.13;51.18;99965.38;4473221;32;20103;-76
2022/01/13 07:50:52;;;;;;;25.62;9.43;;;;;;;6.87;51.24;99959.31;4486999;32;20088;-76
2022/01/13 07:53:19;;;;;;;23.55;8.63;;;;;;;7.15;50.84;99971.34;4487051;32;20119;-75
2022/01/13 07:55:47;;;;;;;24.70;10.18;;;;;;;6.42;52.63;99955.75;4487034;32;20931;-75
2022/01/13 07:58:15;;;;;;;22.17;10.02;;;;;;;5.54;56.37;99975.66;4487547;32;20147;-76
2022/01/13 08:00:43;;;;;;;18.42;7.90;;;;;;;6.18;53.84;99966.75;4488682;32;20108;-77
2022/01/13 08:03:12;;;;;;;25.85;9.82;;;;;;;5.96;54.47;99977.72;4489435;32;20103;-75
2022/01/13 08:05:39;;;;;;;22.02;8.63;;;;;;;5.30;57.04;99984.81;4488955;32;20148;-77
2022/01/13 08:08:06;;;;;;;22.80;8.60;;;;;;;5.81;55.77;99980.97;4488297;32;20114;-76
2022/01/13 08:10:33;;;;;;;23.00;8.10;;;;;;;5.46;57.54;99988.38;4487506;32;20760;-76
2022/01/13 08:13:00;;;;;;;23.42;9.50;;;;;;;6.14;55.57;99988.06;4487110;32;20156;-76
2022/01/13 08:15:28;;;;;;;22.33;8.98;;;;;;;6.76;53.41;99995.19;4487107;32;20152;-75
2022/01/13 08:20:40;;;;;;;24.87;8.18;;;;;;;6.87;53.20;99993.53;4487284;32;20163;-76
2022/01/13 08:23:09;;;;;;;24.73;10.48;;;;;;;6.71;53.42;99998.63;4474200;32;20084;-76
2022/01/13 08:25:36;;;;;;;26.08;7.82;;;;;;;6.56;53.81;100005.38;4488357;32;20127;-76
2022/01/13 08:28:05;;;;;;;24.40;9.27;;;;;;;6.17;55.42;100006.03;4473429;32;20155;-75
2022/01/13 08:30:39;;;;;;;22.62;9.30;;;;;;;5.96;56.40;100004.19;4473694;32;20156;-75
2022/01/13 08:33:06;;;;;;;24.95;10.18;;;;;;;6.18;55.94;100009.47;4487117;32;20386;-76
2022/01/13 08:35:33;;;;;;;23.52;9.52;;;;;;;6.13;55.61;100016.25;4477969;32;20120;-77
2022/01/13 08:38:07;;;;;;;22.73;8.95;;;;;;;5.93;55.47;100003.28;4489459;32;20100;-77
2022/01/13 08:40:34;;;;;;;21.80;8.55;;;;;;;5.42;57.75;100015.66;4488840;32;20096;-76
2022/01/13 08:43:03;;;;;;;25.27;9.93;;;;;;;4.73;59.71;99998.72;4486676;32;20128;-77
2022/01/13 08:45:30;;;;;;;25.25;9.75;;;;;;;4.41;61.71;99992.34;4463932;32;20398;-77
2022/01/13 08:47:57;;;;;;;22.45;8.85;;;;;;;3.91;63.07;99998.47;4489879;32;20755;-78
2022/01/13 08:50:24;;;;;;;23.30;9.13;;;;;;;4.10;63.49;100004.69;4494104;32;20108;-78
2022/01/13 08:52:51;;;;;;;25.98;10.32;;;;;;;4.39;61.33;100010.22;4491582;32;20084;-78
2022/01/13 08:55:18;;;;;;;26.42;10.38;;;;;;;4.41;61.98;100023.87;4492233;32;20124;-77
2022/01/13 08:57:45;;;;;;;27.20;9.40;;;;;;;5.88;57.90;100023.72;4491242;32;20205;-78
2022/01/13 09:00:12;;;;;;;23.60;9.50;;;;;;;5.18;58.70;100020.53;4488739;32;20069;-79
2022/01/13 09:02:42;;;;;;;24.83;9.30;;;;;;;5.11;59.38;100024.75;4489912;32;20110;-78
2022/01/13 09:05:11;;;;;;;27.10;11.15;;;;;;;5.18;59.35;100023.94;4488508;32;20093;-77
2022/01/13 09:07:38;;;;;;;29.80;11.45;;;;;;;5.09;60.30;100030.66;4486311;32;20151;-76
2022/01/13 09:10:07;;;;;;;23.58;9.20;;;;;;;5.79;58.12;100026.22;4486096;32;20097;-76
2022/01/13 09:12:34;;;;;;;23.75;9.70;;;;;;;5.37;58.41;100022.44;4486586;32;20092;-76
2022/01/13 09:15:15;;;;;;;23.65;8.70;;;;;;;5.58;57.98;100011.53;4489177;32;20155;-76
2022/01/13 09:17:44;;;;;;;22.67;9.75;;;;;;;5.43;58.48;100012.25;4487943;32;20110;-76
2022/01/13 09:20:13;;;;;;;23.25;8.70;;;;;;;6.39;55.41;100009.59;4485954;32;20465;-76
2022/01/13 09:22:40;;;;;;;22.60;9.35;;;;;;;6.19;56.21;100006.91;4472546;32;20167;-76
2022/01/13 09:25:08;;;;;;;25.00;9.30;;;;;;;6.28;54.77;100009.53;4487044;32;20153;-76
2022/01/13 09:27:35;;;;;;;25.10;9.95;;;;;;;6.46;54.92;100005.31;4485848;32;20136;-76
2022/01/13 09:30:03;;;;;;;22.58;9.73;;;;;;;6.78;53.78;100006.31;4487298;32;20105;-77
2022/01/13 09:32:30;;;;;;;23.33;8.75;;;;;;;6.59;54.73;100010.53;4474917;32;20120;-77
2022/01/13 09:34:57;;;;;;;24.35;9.48;;;;;;;6.82;53.37;100014.91;4488157;32;20123;-76
2022/01/13 09:37:24;;;;;;;24.65;10.75;;;;;;;7.06;52.15;100014.97;4488205;32;20103;-75
2022/01/13 09:39:51;;;;;;;26.40;10.20;;;;;;;5.76;55.56;100019.38;4474272;32;20176;-78
2022/01/13 09:42:18;;;;;;;18.25;7.47;;;;;;;6.65;53.53;100028.50;4489525;32;20179;-77
2022/01/13 09:44:47;;;;;;;23.98;9.48;;;;;;;6.85;52.77;100025.16;4488133;32;20084;-76
2022/01/13 09:47:14;;;;;;;25.00;9.38;;;;;;;6.11;54.61;100025.62;4488302;32;20168;-76
2022/01/13 09:49:43;;;;;;;19.40;7.53;;;;;;;6.39;54.12;100030.09;4487802;32;20096;-77
2022/01/13 09:52:12;;;;;;;23.15;9.40;;;;;;;6.31;54.39;100032.59;4489220;32;20486;-77
2022/01/13 09:54:39;;;;;;;;;;;;;;;6.31;54.27;100036.87;4488301;32;20143;-77
2022/01/13 09:57:08;;;;;;;21.42;7.28;;;;;;;5.45;56.94;100025.06;4475782;32;19997;-77
2022/01/13 09:59:35;;;;;;;19.42;7.37;;;;;;;5.54;57.06;100027.72;4489686;32;20490;-77
2022/01/13 10:02:02;;;;;;;24.87;9.35;;;;;;;5.80;56.00;100030.50;4487689;32;20108;-76
2022/01/13 10:04:43;;;;;;;21.05;7.55;;;;;;;5.49;58.11;100025.09;4487726;32;20080;-76
2022/01/13 10:07:13;;;;;;;22.13;9.50;;;;;;;6.17;55.75;100029.09;4488292;32;20108;-76
2022/01/13 10:10:03;;;;;;;25.25;9.43;;;;;;;6.29;54.72;100025.75;4487405;32;20419;-76
2022/01/13 10:12:37;;;;;;;20.60;8.27;;;;;;;7.03;53.23;100003.84;4487984;32;20096;-76
2022/01/13 10:17:49;;;;;;;24.75;9.60;;;;;;;6.99;52.94;100002.97;4489052;32;20136;-77
2022/01/13 10:20:19;;;;;;;21.30;9.60;;;;;;;7.41;51.58;99993.63;4488770;32;20139;-76
2022/01/13 10:22:47;;;;;;;20.60;8.30;;;;;;;7.91;50.20;99988.50;4489207;32;20080;-76
2022/01/13 10:25:27;;;;;;;24.58;10.18;;;;;;;7.03;52.46;99981.59;4487806;32;20164;-75
2022/01/13 10:27:54;;;;;;;23.00;9.60;;;;;;;8.59;48.15;99984.94;4488248;31;20151;-77
2022/01/13 10:30:25;;;;;;;23.12;9.80;;;;;;;9.33;46.74;99981.94;4487334;32;20112;-76
2022/01/13 10:32:53;;;;;;;25.88;9.60;;;;;;;8.87;47.27;99990.81;4487508;32;20115;-76
2022/01/13 10:35:21;;;;;;;25.60;9.98;;;;;;;7.92;49.64;99986.78;4487598;32;20463;-77
2022/01/13 10:37:58;;;;;;;23.20;8.43;;;;;;;8.28;49.46;99984.13;4472941;32;20100;-76
2022/01/13 10:40:33;;;;;;;22.77;9.75;;;;;;;7.95;49.45;99990.19;4473611;32;20100;-77
2022/01/13 10:45:36;;;;;;;21.17;8.98;;;;;;;9.69;45.11;99991.16;4473030;32;20164;-77
2022/01/13 10:48:15;;;;;;;22.62;9.70;;;;;;;9.47;45.52;99996.47;4473357;32;20105;-76
2022/01/13 10:50:48;;;;;;;16.67;6.45;;;;;;;9.73;45.12;100001.41;4487657;32;20109;-76
2022/01/13 10:53:16;;;;;;;20.20;9.05;;;;;;;8.61;46.74;99992.63;4487139;32;20462;-74
2022/01/13 10:55:51;;;;;;;20.20;9.05;;;;;;;9.68;45.14;100005.75;4487505;32;20136;-75
2022/01/13 10:58:24;;;;;;;21.23;8.88;;;;;;;10.41;43.19;100001.62;4472991;32;20104;-75
2022/01/13 11:00:52;;;;;;;20.10;8.48;;;;;;;10.90;41.92;99991.59;4487494;32;20110;-76
2022/01/13 11:03:23;;;;;;;18.80;7.70;;;;;;;11.35;40.99;99994.41;4487416;32;20132;-76
2022/01/13 11:06:01;;;;;;;19.05;7.43;;;;;;;8.80;45.86;99996.84;4487179;32;20092;-75
2022/01/13 11:08:31;;;;;;;20.23;8.52;;;;;;;8.70;46.67;99993.44;4487371;32;20138;-75
2022/01/13 11:11:01;;;;;;;22.40;9.05;;;;;;;8.62;47.17;99984.09;4473235;32;20433;-75
2022/01/13 11:13:30;;;;;;;21.73;8.15;;;;;;;9.06;46.81;99960.69;4487662;32;20144;-75
2022/01/13 11:15:57;;;;;;;21.92;8.95;;;;;;;8.20;47.82;99956.75;4488540;32;20757;-77
2022/01/13 11:18:30;;;;;;;22.17;8.73;;;;;;;8.38;48.14;99936.12;4473503;32;20138;-77
2022/01/13 11:20:58;;;;;;;23.55;9.52;;;;;;;8.76;47.57;99942.84;4484661;32;20163;-77
2022/01/13 11:23:25;;;;;;;20.55;8.32;;;;;;;8.45;48.47;99952.41;4484854;32;20171;-76
2022/01/13 11:25:55;;;;;;;21.52;8.18;;;;;;;7.94;49.91;99954.22;4484693;32;20088;-76
2022/01/13 11:28:23;;;;;;;24.30;8.85;;;;;;;8.53;48.16;99960.97;4485277;32;20539;-76
2022/01/13 11:30:51;;;;;;;23.75;9.13;;;;;;;8.13;48.70;99950.75;4470864;32;20122;-76
2022/01/13 11:33:19;;;;;;;22.67;9.13;;;;;;;7.22;51.18;99957.66;4484462;32;20623;-77
2022/01/13 11:35:53;;;;;;;21.85;9.10;;;;;;;7.58;51.35;99967.97;4485433;32;20085;-77
2022/01/13 11:38:20;;;;;;;21.75;8.90;;;;;;;9.04;47.15;99966.69;4472307;32;20521;-77
2022/01/13 11:40:50;;;;;;;23.98;9.50;;;;;;;9.14;46.92;99963.19;4485402;32;20109;-77
2022/01/13 11:43:28;;;;;;;20.48;8.50;;;;;;;9.36;46.52;99964.78;4485833;32;20171;-77
2022/01/13 11:45:56;;;;;;;20.27;8.43;;;;;;;9.03;46.71;99949.53;4473018;32;20155;-77
2022/01/13 11:48:29;;;;;;;20.08;8.15;;;;;;;8.66;47.70;99947.16;4472603;32;20161;-77
2022/01/13 11:51:16;;;;;;;20.40;7.85;;;;;;;8.84;46.94;99953.94;4487201;32;20087;-77
2022/01/13 11:53:55;;;;;;;19.63;8.57;;;;;;;9.10;45.97;99946.06;4473050;32;20175;-78
2022/01/13 11:56:23;;;;;;;19.60;9.07;;;;;;;9.15;46.27;99946.91;4472518;32;20147;-78
2022/01/13 11:58:50;;;;;;;19.50;7.90;;;;;;;9.99;44.30;99946.16;4486578;32;20107;-77
2022/01/13 12:01:23;;;;;;;18.83;8.23;;;;;;;10.17;43.38;99942.53;4486642;32;20136;-78